De Peyster, NY (13633)

8:44 AM EDT on August 25, 2016 (GMT -0400)
APRSWXNET | | Change Station

Elev 283 ft 44.54 °N, 75.57 °W | Updated 43 minutes ago

Mostly Cloudy
Mostly Cloudy
73 °F
Feels Like 74 °F
N
4
Wind Variable Wind from South
Gusts 9.0 mph

Today
High -- | Low -- °F
--% Chance of Precip.
Yesterday
High -- | Low -- °F
Precip. -- in
Pressure 29.94 in
Visibility 10.0 miles
Clouds Mostly Cloudy 3100 ft
Heat Index 74 °F
Dew Point 66 °F
Humidity 78%
Rainfall in
Snow Depth Not available.
6:16 AM 7:49 PM
Last Quarter, 46% visible
SPECI KGTB 251238Z AUTO 19008KT 10SM BKN031 23/19 A2994 RMK AO2 RAB26E36DZB36E38
Pressure 29.94 in
Visibility 10.0 miles
Clouds Mostly Cloudy 3100 ft
Heat Index 74 °F
Dew Point 66 °F
Humidity 78%
Rainfall in
Snow Depth Not available.
6:16 AM 7:49 PM
Last Quarter, 46% visible
SPECI KGTB 251238Z AUTO 19008KT 10SM BKN031 23/19 A2994 RMK AO2 RAB26E36DZB36E38

10-Day Weather Forecast

Almanac

Astronomy

Aug. 25, 2016 Rise Set
Actual Time
Civil Twilight
Nautical Twilight
Astronomical Twilight
Moon
Length of Visible Light
Length of Day
Tomorrow will be .
, % of the Moon is Illuminated

Today's Extremes

State Highs State Lows

Community

WunderPhotos

Upload Photos

1,934,837 photos uploaded!

WunderBlog® & News

Nearby

Air Quality

  Air Quality AQ Index Pollutant
Not available.

Snow Depth

Station Depth Elevation

Earthquake Activity

City Distance Mag. Time & Date
Minimum magnitude displayed is 2.5.

Coastal Water Temperatures

Place Temperature

Stations

Nearby Weather Stations

Station Location Temp. Windchill Dew Point Humidity Wind Precip. Elev Updated Type
                   

Watches & Warnings

There are currently no watches in effect.